sensor_id;sensor_type;location;lat;lon;timestamp;P1;durP1;ratioP1;P2;durP2;ratioP2
68224;SDS011;57497;43.322;21.932;2022-12-11T00:00:36;13.8;;;7.3;;
68224;SDS011;57497;43.322;21.932;2022-12-11T00:05:37;23.9;;;11.4;;
68224;SDS011;57497;43.322;21.932;2022-12-11T00:10:33;20.7;;;10.6;;
68224;SDS011;57497;43.322;21.932;2022-12-11T00:15:33;7.5;;;5.1;;
68224;SDS011;57497;43.322;21.932;2022-12-11T00:20:33;20.1;;;10.9;;
68224;SDS011;57497;43.322;21.932;2022-12-11T00:25:32;10.6;;;5.7;;
68224;SDS011;57497;43.322;21.932;2022-12-11T00:30:33;10.4;;;6.3;;
68224;SDS011;57497;43.322;21.932;2022-12-11T00:35:36;11.2;;;5.1;;
68224;SDS011;57497;43.322;21.932;2022-12-11T00:40:32;9.8;;;5.7;;
68224;SDS011;57497;43.322;21.932;2022-12-11T00:45:34;8.4;;;4.7;;
68224;SDS011;57497;43.322;21.932;2022-12-11T00:50:33;2.2;;;1.7;;
68224;SDS011;57497;43.322;21.932;2022-12-11T00:55:35;8.9;;;1.7;;
68224;SDS011;57497;43.322;21.932;2022-12-11T01:00:33;4.9;;;2;;
68224;SDS011;57497;43.322;21.932;2022-12-11T01:05:32;2.7;;;1.3;;
68224;SDS011;57497;43.322;21.932;2022-12-11T01:10:33;1.9;;;1.3;;
68224;SDS011;57497;43.322;21.932;2022-12-11T01:15:34;1.6;;;1.3;;
68224;SDS011;57497;43.322;21.932;2022-12-11T01:20:33;3.3;;;1.8;;
68224;SDS011;57497;43.322;21.932;2022-12-11T01:25:33;3.3;;;1.9;;
68224;SDS011;57497;43.322;21.932;2022-12-11T01:30:33;3.3;;;1.7;;
68224;SDS011;57497;43.322;21.932;2022-12-11T01:35:32;3.1;;;2.2;;
68224;SDS011;57497;43.322;21.932;2022-12-11T01:40:33;2.8;;;1.3;;
68224;SDS011;57497;43.322;21.932;2022-12-11T01:45:35;2.1;;;1.6;;
68224;SDS011;57497;43.322;21.932;2022-12-11T01:50:34;3.9;;;1.9;;
68224;SDS011;57497;43.322;21.932;2022-12-11T01:55:33;1.6;;;1.2;;
68224;SDS011;57497;43.322;21.932;2022-12-11T02:00:34;5.2;;;2.2;;
68224;SDS011;57497;43.322;21.932;2022-12-11T02:05:33;13.2;;;1.3;;
68224;SDS011;57497;43.322;21.932;2022-12-11T02:10:37;2.2;;;1.4;;
68224;SDS011;57497;43.322;21.932;2022-12-11T02:15:35;5.7;;;1.4;;
68224;SDS011;57497;43.322;21.932;2022-12-11T02:20:33;2.3;;;1.3;;
68224;SDS011;57497;43.322;21.932;2022-12-11T02:25:34;2.1;;;1.1;;
68224;SDS011;57497;43.322;21.932;2022-12-11T02:30:33;1.6;;;1.2;;
68224;SDS011;57497;43.322;21.932;2022-12-11T02:35:33;1.4;;;1.1;;
68224;SDS011;57497;43.322;21.932;2022-12-11T02:40:34;1;;;0.9;;
68224;SDS011;57497;43.322;21.932;2022-12-11T02:45:32;2;;;1.2;;
68224;SDS011;57497;43.322;21.932;2022-12-11T02:50:33;1.4;;;1;;
68224;SDS011;57497;43.322;21.932;2022-12-11T02:55:33;2.2;;;1.2;;
68224;SDS011;57497;43.322;21.932;2022-12-11T03:00:34;2.5;;;1.1;;
68224;SDS011;57497;43.322;21.932;2022-12-11T03:05:33;1.5;;;1.3;;
68224;SDS011;57497;43.322;21.932;2022-12-11T03:10:32;3;;;1.8;;
68224;SDS011;57497;43.322;21.932;2022-12-11T03:15:35;4.6;;;2.8;;
68224;SDS011;57497;43.322;21.932;2022-12-11T03:20:34;7.7;;;2.1;;
68224;SDS011;57497;43.322;21.932;2022-12-11T03:25:34;2.4;;;1.6;;
68224;SDS011;57497;43.322;21.932;2022-12-11T03:30:33;4;;;2.5;;
68224;SDS011;57497;43.322;21.932;2022-12-11T03:35:34;3.3;;;2.3;;
68224;SDS011;57497;43.322;21.932;2022-12-11T03:40:33;6.4;;;3.2;;
68224;SDS011;57497;43.322;21.932;2022-12-11T03:45:33;2.5;;;1.8;;
68224;SDS011;57497;43.322;21.932;2022-12-11T03:50:32;4.4;;;2.6;;
68224;SDS011;57497;43.322;21.932;2022-12-11T03:55:33;4.5;;;3.8;;
68224;SDS011;57497;43.322;21.932;2022-12-11T04:00:34;3.2;;;1.4;;
68224;SDS011;57497;43.322;21.932;2022-12-11T04:05:33;4.9;;;2.9;;
68224;SDS011;57497;43.322;21.932;2022-12-11T04:10:33;3.3;;;2.1;;
68224;SDS011;57497;43.322;21.932;2022-12-11T04:15:33;6.8;;;2.9;;
68224;SDS011;57497;43.322;21.932;2022-12-11T04:20:32;7.2;;;4.5;;
68224;SDS011;57497;43.322;21.932;2022-12-11T04:25:33;11.5;;;3.6;;
68224;SDS011;57497;43.322;21.932;2022-12-11T04:30:33;4;;;2.7;;
68224;SDS011;57497;43.322;21.932;2022-12-11T04:35:32;2.4;;;1.9;;
68224;SDS011;57497;43.322;21.932;2022-12-11T04:40:33;8.7;;;3.2;;
68224;SDS011;57497;43.322;21.932;2022-12-11T04:45:33;4.3;;;2.2;;
68224;SDS011;57497;43.322;21.932;2022-12-11T04:50:32;6.3;;;2.8;;
68224;SDS011;57497;43.322;21.932;2022-12-11T04:55:33;2.5;;;1.7;;
68224;SDS011;57497;43.322;21.932;2022-12-11T05:00:34;3.9;;;2;;
68224;SDS011;57497;43.322;21.932;2022-12-11T05:05:33;4.3;;;2.9;;
68224;SDS011;57497;43.322;21.932;2022-12-11T05:10:32;3;;;2.7;;
68224;SDS011;57497;43.322;21.932;2022-12-11T05:15:32;1.9;;;1.7;;
68224;SDS011;57497;43.322;21.932;2022-12-11T05:20:33;4.5;;;2;;
68224;SDS011;57497;43.322;21.932;2022-12-11T05:25:33;3.3;;;2.3;;
68224;SDS011;57497;43.322;21.932;2022-12-11T05:30:32;3.3;;;1.4;;
68224;SDS011;57497;43.322;21.932;2022-12-11T05:35:33;2;;;1.6;;
68224;SDS011;57497;43.322;21.932;2022-12-11T05:40:33;3.6;;;2.2;;
68224;SDS011;57497;43.322;21.932;2022-12-11T05:45:32;2.3;;;1.8;;
68224;SDS011;57497;43.322;21.932;2022-12-11T05:50:33;3.1;;;2.6;;
68224;SDS011;57497;43.322;21.932;2022-12-11T05:55:33;2.8;;;1.7;;
68224;SDS011;57497;43.322;21.932;2022-12-11T06:00:34;2.3;;;1.9;;
68224;SDS011;57497;43.322;21.932;2022-12-11T06:05:36;2.1;;;1.7;;
68224;SDS011;57497;43.322;21.932;2022-12-11T06:10:33;1.7;;;1.6;;
68224;SDS011;57497;43.322;21.932;2022-12-11T06:15:33;3.1;;;2.4;;
68224;SDS011;57497;43.322;21.932;2022-12-11T06:20:33;1.3;;;1;;
68224;SDS011;57497;43.322;21.932;2022-12-11T06:25:32;2.4;;;2.2;;
68224;SDS011;57497;43.322;21.932;2022-12-11T06:30:33;4.2;;;2.3;;
68224;SDS011;57497;43.322;21.932;2022-12-11T06:35:33;4.3;;;2.5;;
68224;SDS011;57497;43.322;21.932;2022-12-11T06:40:32;4.3;;;1.8;;
68224;SDS011;57497;43.322;21.932;2022-12-11T06:45:33;1.5;;;0.9;;
68224;SDS011;57497;43.322;21.932;2022-12-11T06:50:33;3;;;1.8;;
68224;SDS011;57497;43.322;21.932;2022-12-11T06:55:33;5.5;;;2.7;;
68224;SDS011;57497;43.322;21.932;2022-12-11T07:00:34;3.7;;;2;;
68224;SDS011;57497;43.322;21.932;2022-12-11T07:05:33;6.6;;;2.7;;
68224;SDS011;57497;43.322;21.932;2022-12-11T07:10:33;2.6;;;2.1;;
68224;SDS011;57497;43.322;21.932;2022-12-11T07:15:33;7.4;;;2.7;;
68224;SDS011;57497;43.322;21.932;2022-12-11T07:20:33;5.6;;;2.2;;
68224;SDS011;57497;43.322;21.932;2022-12-11T07:25:32;4.5;;;2.1;;
68224;SDS011;57497;43.322;21.932;2022-12-11T07:30:33;1.1;;;1;;
68224;SDS011;57497;43.322;21.932;2022-12-11T07:35:33;5.3;;;2.4;;
68224;SDS011;57497;43.322;21.932;2022-12-11T07:40:33;6.7;;;4.1;;
68224;SDS011;57497;43.322;21.932;2022-12-11T07:45:33;8.9;;;4.5;;
68224;SDS011;57497;43.322;21.932;2022-12-11T07:50:32;8.9;;;4.5;;
68224;SDS011;57497;43.322;21.932;2022-12-11T07:55:32;5.5;;;3.9;;
68224;SDS011;57497;43.322;21.932;2022-12-11T08:00:33;5;;;3.1;;
68224;SDS011;57497;43.322;21.932;2022-12-11T08:05:33;3.4;;;2.8;;
68224;SDS011;57497;43.322;21.932;2022-12-11T08:10:33;4.1;;;2.9;;
68224;SDS011;57497;43.322;21.932;2022-12-11T08:15:34;1.6;;;1.2;;
68224;SDS011;57497;43.322;21.932;2022-12-11T08:20:33;4.2;;;2.9;;
68224;SDS011;57497;43.322;21.932;2022-12-11T08:25:33;6.8;;;3.6;;
68224;SDS011;57497;43.322;21.932;2022-12-11T08:30:33;5.4;;;3.7;;
68224;SDS011;57497;43.322;21.932;2022-12-11T08:35:33;5.4;;;3.1;;
68224;SDS011;57497;43.322;21.932;2022-12-11T08:40:33;4.8;;;3.5;;
68224;SDS011;57497;43.322;21.932;2022-12-11T08:45:33;8.8;;;5.9;;
68224;SDS011;57497;43.322;21.932;2022-12-11T08:50:32;8;;;3.9;;
68224;SDS011;57497;43.322;21.932;2022-12-11T08:55:32;5;;;4.2;;
68224;SDS011;57497;43.322;21.932;2022-12-11T09:00:33;5.8;;;4.1;;
68224;SDS011;57497;43.322;21.932;2022-12-11T09:05:33;8.4;;;4.5;;
68224;SDS011;57497;43.322;21.932;2022-12-11T09:10:33;5.9;;;4.8;;
68224;SDS011;57497;43.322;21.932;2022-12-11T09:15:33;7.8;;;4.2;;
68224;SDS011;57497;43.322;21.932;2022-12-11T09:20:32;4.4;;;2.9;;
68224;SDS011;57497;43.322;21.932;2022-12-11T09:25:33;5.6;;;3.7;;
68224;SDS011;57497;43.322;21.932;2022-12-11T09:30:33;4.6;;;4.2;;
68224;SDS011;57497;43.322;21.932;2022-12-11T09:35:32;4.7;;;3.4;;
68224;SDS011;57497;43.322;21.932;2022-12-11T09:40:33;7.6;;;3.5;;
68224;SDS011;57497;43.322;21.932;2022-12-11T09:45:33;3.8;;;2.9;;
68224;SDS011;57497;43.322;21.932;2022-12-11T09:50:32;4.1;;;3.3;;
68224;SDS011;57497;43.322;21.932;2022-12-11T09:55:34;6;;;3.9;;
68224;SDS011;57497;43.322;21.932;2022-12-11T10:00:36;14;;;5.3;;
68224;SDS011;57497;43.322;21.932;2022-12-11T10:05:35;4.5;;;2.6;;
68224;SDS011;57497;43.322;21.932;2022-12-11T10:10:35;4.9;;;2.8;;
68224;SDS011;57497;43.322;21.932;2022-12-11T10:15:34;2.9;;;2;;
68224;SDS011;57497;43.322;21.932;2022-12-11T10:20:33;6.3;;;4.8;;
68224;SDS011;57497;43.322;21.932;2022-12-11T10:25:34;2.9;;;2.6;;
68224;SDS011;57497;43.322;21.932;2022-12-11T10:30:34;5;;;3.8;;
68224;SDS011;57497;43.322;21.932;2022-12-11T10:35:34;8.9;;;4.2;;
68224;SDS011;57497;43.322;21.932;2022-12-11T10:40:33;2.3;;;2.1;;
68224;SDS011;57497;43.322;21.932;2022-12-11T10:45:33;7.2;;;4.4;;
68224;SDS011;57497;43.322;21.932;2022-12-11T10:50:32;16;;;5.9;;
68224;SDS011;57497;43.322;21.932;2022-12-11T10:55:36;6;;;4.1;;
68224;SDS011;57497;43.322;21.932;2022-12-11T11:00:35;14.5;;;4.7;;
68224;SDS011;57497;43.322;21.932;2022-12-11T11:05:34;7.6;;;5;;
68224;SDS011;57497;43.322;21.932;2022-12-11T11:10:33;3.4;;;2.7;;
68224;SDS011;57497;43.322;21.932;2022-12-11T11:15:33;13.1;;;5.9;;
68224;SDS011;57497;43.322;21.932;2022-12-11T11:20:33;11.4;;;5.4;;
68224;SDS011;57497;43.322;21.932;2022-12-11T11:25:33;7.6;;;5.4;;
68224;SDS011;57497;43.322;21.932;2022-12-11T11:30:34;12.2;;;7.1;;
68224;SDS011;57497;43.322;21.932;2022-12-11T11:35:33;18.4;;;9.8;;
68224;SDS011;57497;43.322;21.932;2022-12-11T11:40:36;16.8;;;7.3;;
68224;SDS011;57497;43.322;21.932;2022-12-11T11:45:34;11;;;7.9;;
68224;SDS011;57497;43.322;21.932;2022-12-11T11:50:34;10.5;;;6.4;;
68224;SDS011;57497;43.322;21.932;2022-12-11T11:55:37;16.8;;;6.5;;
68224;SDS011;57497;43.322;21.932;2022-12-11T12:00:33;28;;;12.7;;
68224;SDS011;57497;43.322;21.932;2022-12-11T12:05:34;21.8;;;9.5;;
68224;SDS011;57497;43.322;21.932;2022-12-11T12:10:33;19.7;;;8.2;;
68224;SDS011;57497;43.322;21.932;2022-12-11T12:15:35;16.7;;;9.8;;
68224;SDS011;57497;43.322;21.932;2022-12-11T12:20:35;7.8;;;5.1;;
68224;SDS011;57497;43.322;21.932;2022-12-11T12:25:34;22.2;;;9.7;;
68224;SDS011;57497;43.322;21.932;2022-12-11T12:30:35;9.2;;;6.3;;
68224;SDS011;57497;43.322;21.932;2022-12-11T12:35:34;12.6;;;7.7;;
68224;SDS011;57497;43.322;21.932;2022-12-11T12:40:34;17.3;;;11.5;;
68224;SDS011;57497;43.322;21.932;2022-12-11T12:45:34;14.3;;;10.9;;
68224;SDS011;57497;43.322;21.932;2022-12-11T12:50:35;13.9;;;9.6;;
68224;SDS011;57497;43.322;21.932;2022-12-11T12:55:32;20.2;;;11.7;;
68224;SDS011;57497;43.322;21.932;2022-12-11T13:00:34;11.3;;;8.7;;
68224;SDS011;57497;43.322;21.932;2022-12-11T13:05:33;13.6;;;8.2;;
68224;SDS011;57497;43.322;21.932;2022-12-11T13:10:34;12.9;;;9.6;;
68224;SDS011;57497;43.322;21.932;2022-12-11T13:15:34;19.2;;;9.2;;
68224;SDS011;57497;43.322;21.932;2022-12-11T13:20:33;13.6;;;10.5;;
68224;SDS011;57497;43.322;21.932;2022-12-11T13:25:44;12;;;8.6;;
68224;SDS011;57497;43.322;21.932;2022-12-11T13:30:33;12.4;;;9.2;;
68224;SDS011;57497;43.322;21.932;2022-12-11T13:35:33;24.2;;;11.7;;
68224;SDS011;57497;43.322;21.932;2022-12-11T13:40:36;27.6;;;17.4;;
68224;SDS011;57497;43.322;21.932;2022-12-11T13:45:35;35;;;19.8;;
68224;SDS011;57497;43.322;21.932;2022-12-11T13:50:33;78.6;;;28.2;;
68224;SDS011;57497;43.322;21.932;2022-12-11T13:55:33;40.8;;;25.1;;
68224;SDS011;57497;43.322;21.932;2022-12-11T14:00:34;33.4;;;21.2;;
68224;SDS011;57497;43.322;21.932;2022-12-11T14:05:33;35.3;;;19.8;;
68224;SDS011;57497;43.322;21.932;2022-12-11T14:10:33;41.6;;;27.2;;
68224;SDS011;57497;43.322;21.932;2022-12-11T14:15:34;40.5;;;24.9;;
68224;SDS011;57497;43.322;21.932;2022-12-11T14:20:33;44;;;30.2;;
68224;SDS011;57497;43.322;21.932;2022-12-11T14:25:33;32;;;15.5;;
68224;SDS011;57497;43.322;21.932;2022-12-11T14:30:32;12.1;;;10.8;;
68224;SDS011;57497;43.322;21.932;2022-12-11T14:35:34;17.8;;;11.7;;
68224;SDS011;57497;43.322;21.932;2022-12-11T14:40:34;38.7;;;20;;
68224;SDS011;57497;43.322;21.932;2022-12-11T14:45:33;46.2;;;26.3;;
68224;SDS011;57497;43.322;21.932;2022-12-11T14:50:34;40.8;;;27.1;;
68224;SDS011;57497;43.322;21.932;2022-12-11T14:55:33;19;;;11.7;;
68224;SDS011;57497;43.322;21.932;2022-12-11T15:00:34;26;;;15.7;;
68224;SDS011;57497;43.322;21.932;2022-12-11T15:05:33;29.2;;;14.8;;
68224;SDS011;57497;43.322;21.932;2022-12-11T15:10:33;13.8;;;10.2;;
68224;SDS011;57497;43.322;21.932;2022-12-11T15:15:37;22.8;;;14.9;;
68224;SDS011;57497;43.322;21.932;2022-12-11T15:20:33;29.1;;;17.3;;
68224;SDS011;57497;43.322;21.932;2022-12-11T15:25:33;30.7;;;16;;
68224;SDS011;57497;43.322;21.932;2022-12-11T15:30:33;24.1;;;16.6;;
68224;SDS011;57497;43.322;21.932;2022-12-11T15:35:32;26.1;;;18.4;;
68224;SDS011;57497;43.322;21.932;2022-12-11T15:40:33;32.6;;;23;;
68224;SDS011;57497;43.322;21.932;2022-12-11T15:45:33;49.7;;;32;;
68224;SDS011;57497;43.322;21.932;2022-12-11T15:50:33;43.7;;;26.1;;
68224;SDS011;57497;43.322;21.932;2022-12-11T15:55:33;59.1;;;36.2;;
68224;SDS011;57497;43.322;21.932;2022-12-11T16:00:34;60.8;;;31.5;;
68224;SDS011;57497;43.322;21.932;2022-12-11T16:05:33;62.7;;;33.6;;
68224;SDS011;57497;43.322;21.932;2022-12-11T16:10:32;56.8;;;34.5;;
68224;SDS011;57497;43.322;21.932;2022-12-11T16:15:33;38.8;;;24.4;;
68224;SDS011;57497;43.322;21.932;2022-12-11T16:20:33;56.2;;;35.9;;
68224;SDS011;57497;43.322;21.932;2022-12-11T16:25:32;57;;;27.9;;
68224;SDS011;57497;43.322;21.932;2022-12-11T16:30:34;65.1;;;34.9;;
68224;SDS011;57497;43.322;21.932;2022-12-11T16:35:33;15.7;;;13.9;;
68224;SDS011;57497;43.322;21.932;2022-12-11T16:40:32;29.8;;;19.9;;
68224;SDS011;57497;43.322;21.932;2022-12-11T16:45:33;47.6;;;28.5;;
68224;SDS011;57497;43.322;21.932;2022-12-11T16:50:33;60.1;;;27.8;;
68224;SDS011;57497;43.322;21.932;2022-12-11T16:55:32;52.1;;;29.2;;
68224;SDS011;57497;43.322;21.932;2022-12-11T17:00:33;56.2;;;32.3;;
68224;SDS011;57497;43.322;21.932;2022-12-11T17:05:33;65.6;;;32.7;;
68224;SDS011;57497;43.322;21.932;2022-12-11T17:10:33;53.6;;;28.3;;
68224;SDS011;57497;43.322;21.932;2022-12-11T17:15:33;45;;;25.8;;
68224;SDS011;57497;43.322;21.932;2022-12-11T17:20:33;41;;;18.6;;
68224;SDS011;57497;43.322;21.932;2022-12-11T17:25:32;53.7;;;30.5;;
68224;SDS011;57497;43.322;21.932;2022-12-11T17:30:32;50.5;;;32;;
68224;SDS011;57497;43.322;21.932;2022-12-11T17:35:33;57.9;;;36.4;;
68224;SDS011;57497;43.322;21.932;2022-12-11T17:40:33;73.4;;;39.5;;
68224;SDS011;57497;43.322;21.932;2022-12-11T17:45:32;55.7;;;37.1;;
68224;SDS011;57497;43.322;21.932;2022-12-11T17:50:33;47;;;32.3;;
68224;SDS011;57497;43.322;21.932;2022-12-11T17:55:33;23.5;;;15;;
68224;SDS011;57497;43.322;21.932;2022-12-11T18:00:33;25.8;;;15.7;;
68224;SDS011;57497;43.322;21.932;2022-12-11T18:05:32;56.1;;;32.2;;
68224;SDS011;57497;43.322;21.932;2022-12-11T18:10:34;30.5;;;20.3;;
68224;SDS011;57497;43.322;21.932;2022-12-11T18:15:32;21.9;;;15.5;;
68224;SDS011;57497;43.322;21.932;2022-12-11T18:20:33;28.5;;;20.7;;
68224;SDS011;57497;43.322;21.932;2022-12-11T18:25:33;28.4;;;15.3;;
68224;SDS011;57497;43.322;21.932;2022-12-11T18:30:33;30;;;17.8;;
68224;SDS011;57497;43.322;21.932;2022-12-11T18:35:32;33.8;;;18.9;;
68224;SDS011;57497;43.322;21.932;2022-12-11T18:40:33;26.4;;;20.8;;
68224;SDS011;57497;43.322;21.932;2022-12-11T18:45:33;33.9;;;19.6;;
68224;SDS011;57497;43.322;21.932;2022-12-11T18:50:32;31.2;;;22.8;;
68224;SDS011;57497;43.322;21.932;2022-12-11T18:55:33;33.7;;;24.1;;
68224;SDS011;57497;43.322;21.932;2022-12-11T19:00:34;47.2;;;27.1;;
68224;SDS011;57497;43.322;21.932;2022-12-11T19:05:33;42;;;27.6;;
68224;SDS011;57497;43.322;21.932;2022-12-11T19:10:33;32;;;21.8;;
68224;SDS011;57497;43.322;21.932;2022-12-11T19:15:36;34.3;;;20.9;;
68224;SDS011;57497;43.322;21.932;2022-12-11T19:20:34;37.3;;;23.5;;
68224;SDS011;57497;43.322;21.932;2022-12-11T19:25:33;28.3;;;20.6;;
68224;SDS011;57497;43.322;21.932;2022-12-11T19:30:33;49.8;;;29.1;;
68224;SDS011;57497;43.322;21.932;2022-12-11T19:35:32;48.3;;;31;;
68224;SDS011;57497;43.322;21.932;2022-12-11T19:40:33;32.4;;;20.9;;
68224;SDS011;57497;43.322;21.932;2022-12-11T19:45:33;37.8;;;24.5;;
68224;SDS011;57497;43.322;21.932;2022-12-11T19:50:33;37.5;;;25.2;;
68224;SDS011;57497;43.322;21.932;2022-12-11T19:55:32;36.6;;;20.8;;
68224;SDS011;57497;43.322;21.932;2022-12-11T20:00:35;46.8;;;31.7;;
68224;SDS011;57497;43.322;21.932;2022-12-11T20:05:33;32.7;;;23.6;;
68224;SDS011;57497;43.322;21.932;2022-12-11T20:10:33;38.6;;;22.5;;
68224;SDS011;57497;43.322;21.932;2022-12-11T20:15:33;32.8;;;21.5;;
68224;SDS011;57497;43.322;21.932;2022-12-11T20:20:33;31.3;;;22;;
68224;SDS011;57497;43.322;21.932;2022-12-11T20:25:32;33.6;;;21.8;;
68224;SDS011;57497;43.322;21.932;2022-12-11T20:30:33;33.3;;;20.8;;
68224;SDS011;57497;43.322;21.932;2022-12-11T20:35:33;34.7;;;22.1;;
68224;SDS011;57497;43.322;21.932;2022-12-11T20:40:33;52.8;;;36.9;;
68224;SDS011;57497;43.322;21.932;2022-12-11T20:45:33;51.3;;;33.4;;
68224;SDS011;57497;43.322;21.932;2022-12-11T20:50:33;43.5;;;26.8;;
68224;SDS011;57497;43.322;21.932;2022-12-11T20:55:33;35;;;23.5;;
68224;SDS011;57497;43.322;21.932;2022-12-11T21:00:34;31.1;;;22.8;;
68224;SDS011;57497;43.322;21.932;2022-12-11T21:05:38;32.1;;;22;;
68224;SDS011;57497;43.322;21.932;2022-12-11T21:10:33;35.7;;;24.4;;
68224;SDS011;57497;43.322;21.932;2022-12-11T21:15:33;39.6;;;24.5;;
68224;SDS011;57497;43.322;21.932;2022-12-11T21:20:33;42.8;;;25.6;;
68224;SDS011;57497;43.322;21.932;2022-12-11T21:25:33;33.8;;;27.2;;
68224;SDS011;57497;43.322;21.932;2022-12-11T21:30:33;58.4;;;34.4;;
68224;SDS011;57497;43.322;21.932;2022-12-11T21:35:33;64.1;;;38.5;;
68224;SDS011;57497;43.322;21.932;2022-12-11T21:40:32;47.3;;;28.2;;
68224;SDS011;57497;43.322;21.932;2022-12-11T21:45:33;46;;;26.4;;
68224;SDS011;57497;43.322;21.932;2022-12-11T21:50:32;38.1;;;21.6;;
68224;SDS011;57497;43.322;21.932;2022-12-11T21:55:33;46.5;;;29.8;;
68224;SDS011;57497;43.322;21.932;2022-12-11T22:00:34;45.6;;;28.3;;
68224;SDS011;57497;43.322;21.932;2022-12-11T22:05:33;63.9;;;31.5;;
68224;SDS011;57497;43.322;21.932;2022-12-11T22:10:33;54;;;34;;
68224;SDS011;57497;43.322;21.932;2022-12-11T22:15:32;54.8;;;32.9;;
68224;SDS011;57497;43.322;21.932;2022-12-11T22:20:33;48.3;;;23.2;;
68224;SDS011;57497;43.322;21.932;2022-12-11T22:25:33;35.2;;;21.2;;
68224;SDS011;57497;43.322;21.932;2022-12-11T22:30:33;81.6;;;40.3;;
68224;SDS011;57497;43.322;21.932;2022-12-11T22:35:33;71.8;;;37.2;;
68224;SDS011;57497;43.322;21.932;2022-12-11T22:40:33;67.4;;;38.7;;
68224;SDS011;57497;43.322;21.932;2022-12-11T22:45:36;61.2;;;32;;
68224;SDS011;57497;43.322;21.932;2022-12-11T22:50:33;29.9;;;21.9;;
68224;SDS011;57497;43.322;21.932;2022-12-11T22:55:33;51.3;;;28.2;;
68224;SDS011;57497;43.322;21.932;2022-12-11T23:00:34;65.3;;;31.1;;
68224;SDS011;57497;43.322;21.932;2022-12-11T23:05:33;50.7;;;29;;
68224;SDS011;57497;43.322;21.932;2022-12-11T23:10:33;40.2;;;20.8;;
68224;SDS011;57497;43.322;21.932;2022-12-11T23:15:34;50.8;;;26;;
68224;SDS011;57497;43.322;21.932;2022-12-11T23:20:33;54.9;;;31;;
68224;SDS011;57497;43.322;21.932;2022-12-11T23:25:32;40.2;;;23.4;;
68224;SDS011;57497;43.322;21.932;2022-12-11T23:30:32;39.7;;;24.3;;
68224;SDS011;57497;43.322;21.932;2022-12-11T23:35:33;64.3;;;31;;
68224;SDS011;57497;43.322;21.932;2022-12-11T23:40:33;49.1;;;31.9;;
68224;SDS011;57497;43.322;21.932;2022-12-11T23:45:33;58.3;;;34.1;;
68224;SDS011;57497;43.322;21.932;2022-12-11T23:50:33;50.7;;;28.7;;
68224;SDS011;57497;43.322;21.932;2022-12-11T23:55:33;46;;;27.2;;
